YUSPL LOWW-LOWK
Flight info
| Callsign | YUSPL |
|---|---|
| Flight time | 0h 41m |
| Altitude | 12000 |
| Route | RUPET DCT ABIRI ABIRI4T |
| Aircraft | BE60/L-SDFGRY/C |
Departure
| Time | 2026-04-25 12:21 |
|---|---|
| Airport | Vienna International Airport (LOWW) |
Arrival
| Time | 2026-04-25 13:02 |
|---|---|
| Airport | Klagenfurt Airport (LOWK) |
| Time | Latitude | Longitude | Altitude | Speed | Heading |
|---|---|---|---|---|---|
| 2026-04-25 11:49 | 48.12707 | 16.53479 | 604 ft | 0 kts | 295° |
| 2026-04-25 12:15 | 48.12708 | 16.53478 | 605 ft | 0 kts | 295° |
| 2026-04-25 12:15 | 48.12708 | 16.53476 | 605 ft | 0 kts | 295° |
| 2026-04-25 12:15 | 48.12698 | 16.53466 | 605 ft | 7 kts | 136° |
| 2026-04-25 12:15 | 48.12639 | 16.53523 | 605 ft | 16 kts | 203° |
| 2026-04-25 12:16 | 48.12531 | 16.53499 | 605 ft | 16 kts | 174° |
| 2026-04-25 12:16 | 48.12444 | 16.53474 | 605 ft | 5 kts | 181° |
| 2026-04-25 12:16 | 48.12415 | 16.53552 | 605 ft | 13 kts | 111° |
| 2026-04-25 12:16 | 48.12367 | 16.53714 | 605 ft | 21 kts | 116° |
| 2026-04-25 12:17 | 48.12292 | 16.53939 | 605 ft | 28 kts | 118° |
| 2026-04-25 12:17 | 48.12200 | 16.54228 | 605 ft | 33 kts | 116° |
| 2026-04-25 12:17 | 48.12102 | 16.54534 | 605 ft | 31 kts | 115° |
| 2026-04-25 12:17 | 48.12007 | 16.54830 | 605 ft | 32 kts | 116° |
| 2026-04-25 12:18 | 48.11920 | 16.55091 | 605 ft | 27 kts | 115° |
| 2026-04-25 12:18 | 48.11834 | 16.55356 | 605 ft | 29 kts | 116° |
| 2026-04-25 12:18 | 48.11743 | 16.55635 | 605 ft | 25 kts | 118° |
| 2026-04-25 12:18 | 48.11661 | 16.55872 | 605 ft | 22 kts | 127° |
| 2026-04-25 12:19 | 48.11549 | 16.56126 | 605 ft | 17 kts | 178° |
| 2026-04-25 12:19 | 48.11516 | 16.56105 | 605 ft | 0 kts | 230° |
| 2026-04-25 12:20 | 48.11515 | 16.56104 | 605 ft | 2 kts | 231° |
| 2026-04-25 12:20 | 48.11502 | 16.56003 | 605 ft | 16 kts | 267° |
| 2026-04-25 12:20 | 48.11504 | 16.55829 | 605 ft | 36 kts | 277° |
| 2026-04-25 12:20 | 48.11656 | 16.55258 | 605 ft | 85 kts | 296° |
| 2026-04-25 12:21 | 48.11962 | 16.54339 | 712 ft | 105 kts | 297° |
| 2026-04-25 12:21 | 48.12337 | 16.53365 | 1092 ft | 108 kts | 300° |
| 2026-04-25 12:21 | 48.12590 | 16.52301 | 1350 ft | 117 kts | 263° |
| 2026-04-25 12:21 | 48.11837 | 16.50936 | 1577 ft | 144 kts | 220° |
| 2026-04-25 12:22 | 48.11277 | 16.50392 | 1741 ft | 145 kts | 217° |
| 2026-04-25 12:22 | 48.10408 | 16.49617 | 2012 ft | 146 kts | 217° |
| 2026-04-25 12:22 | 48.09524 | 16.48866 | 2329 ft | 145 kts | 218° |
| 2026-04-25 12:22 | 48.08669 | 16.48064 | 2691 ft | 146 kts | 218° |
| 2026-04-25 12:23 | 48.07800 | 16.47258 | 3020 ft | 146 kts | 221° |
| 2026-04-25 12:23 | 48.07015 | 16.46330 | 3436 ft | 143 kts | 227° |
| 2026-04-25 12:23 | 48.06268 | 16.45346 | 3829 ft | 143 kts | 229° |
| 2026-04-25 12:23 | 48.05516 | 16.44356 | 4081 ft | 147 kts | 228° |
| 2026-04-25 12:24 | 48.04739 | 16.43335 | 4352 ft | 149 kts | 229° |
| 2026-04-25 12:24 | 48.03955 | 16.42307 | 4672 ft | 151 kts | 228° |
| 2026-04-25 12:24 | 48.03157 | 16.41276 | 4936 ft | 153 kts | 228° |
| 2026-04-25 12:24 | 48.02351 | 16.40225 | 5181 ft | 154 kts | 229° |
| 2026-04-25 12:25 | 48.01543 | 16.39163 | 5442 ft | 155 kts | 229° |
| 2026-04-25 12:25 | 48.00730 | 16.38095 | 5723 ft | 156 kts | 229° |
| 2026-04-25 12:25 | 47.99919 | 16.37022 | 5938 ft | 158 kts | 229° |
| 2026-04-25 12:25 | 47.99085 | 16.35932 | 6196 ft | 160 kts | 228° |
| 2026-04-25 12:26 | 47.98237 | 16.34838 | 6451 ft | 161 kts | 228° |
| 2026-04-25 12:26 | 47.97384 | 16.33742 | 6683 ft | 162 kts | 228° |
| 2026-04-25 12:26 | 47.96528 | 16.32635 | 6918 ft | 163 kts | 228° |
| 2026-04-25 12:26 | 47.95847 | 16.31340 | 7159 ft | 156 kts | 254° |
| 2026-04-25 12:27 | 47.95512 | 16.29805 | 7389 ft | 156 kts | 256° |
| 2026-04-25 12:27 | 47.95145 | 16.28291 | 7603 ft | 158 kts | 255° |
| 2026-04-25 12:27 | 47.94754 | 16.26738 | 7820 ft | 158 kts | 255° |
| 2026-04-25 12:27 | 47.94369 | 16.25199 | 8049 ft | 159 kts | 255° |
| 2026-04-25 12:28 | 47.93986 | 16.23649 | 8279 ft | 160 kts | 256° |
| 2026-04-25 12:28 | 47.93610 | 16.22109 | 8532 ft | 160 kts | 256° |
| 2026-04-25 12:28 | 47.93226 | 16.20546 | 8773 ft | 161 kts | 255° |
| 2026-04-25 12:28 | 47.92838 | 16.18980 | 9029 ft | 161 kts | 256° |
| 2026-04-25 12:29 | 47.92449 | 16.17409 | 9274 ft | 162 kts | 255° |
| 2026-04-25 12:29 | 47.92059 | 16.15832 | 9501 ft | 162 kts | 255° |
| 2026-04-25 12:29 | 47.91670 | 16.14247 | 9764 ft | 163 kts | 256° |
| 2026-04-25 12:29 | 47.91285 | 16.12658 | 10027 ft | 163 kts | 256° |
| 2026-04-25 12:30 | 47.90896 | 16.11064 | 10249 ft | 164 kts | 256° |
| 2026-04-25 12:30 | 47.90502 | 16.09465 | 10499 ft | 165 kts | 255° |
| 2026-04-25 12:30 | 47.90101 | 16.07859 | 10732 ft | 165 kts | 255° |
| 2026-04-25 12:30 | 47.89703 | 16.06252 | 10956 ft | 165 kts | 255° |
| 2026-04-25 12:31 | 47.89307 | 16.04638 | 11189 ft | 165 kts | 255° |
| 2026-04-25 12:31 | 47.88910 | 16.03032 | 11430 ft | 165 kts | 255° |
| 2026-04-25 12:31 | 47.88508 | 16.01415 | 11648 ft | 167 kts | 255° |
| 2026-04-25 12:31 | 47.88103 | 15.99779 | 11929 ft | 169 kts | 255° |
| 2026-04-25 12:32 | 47.87683 | 15.98074 | 11977 ft | 181 kts | 254° |
| 2026-04-25 12:32 | 47.86995 | 15.96432 | 11996 ft | 196 kts | 231° |
| 2026-04-25 12:32 | 47.85763 | 15.95411 | 12013 ft | 214 kts | 201° |
| 2026-04-25 12:32 | 47.84342 | 15.94768 | 12015 ft | 217 kts | 206° |
| 2026-04-25 12:33 | 47.82936 | 15.93920 | 11994 ft | 218 kts | 208° |
| 2026-04-25 12:33 | 47.81525 | 15.93051 | 12010 ft | 221 kts | 208° |
| 2026-04-25 12:33 | 47.80090 | 15.92198 | 12001 ft | 223 kts | 207° |
| 2026-04-25 12:33 | 47.78647 | 15.91359 | 12012 ft | 224 kts | 207° |
| 2026-04-25 12:34 | 47.77184 | 15.90526 | 12014 ft | 226 kts | 206° |
| 2026-04-25 12:34 | 47.75716 | 15.89694 | 12015 ft | 226 kts | 206° |
| 2026-04-25 12:34 | 47.74244 | 15.88853 | 12009 ft | 226 kts | 207° |
| 2026-04-25 12:34 | 47.73273 | 15.88297 | 12008 ft | 226 kts | 207° |
| 2026-04-25 12:35 | 47.71299 | 15.87172 | 12005 ft | 227 kts | 206° |
| 2026-04-25 12:35 | 47.69823 | 15.86341 | 11995 ft | 226 kts | 206° |
| 2026-04-25 12:35 | 47.68354 | 15.85513 | 12005 ft | 226 kts | 206° |
| 2026-04-25 12:35 | 47.66904 | 15.84695 | 12011 ft | 226 kts | 206° |
| 2026-04-25 12:36 | 47.65424 | 15.83859 | 12000 ft | 226 kts | 206° |
| 2026-04-25 12:36 | 47.63961 | 15.83026 | 12000 ft | 225 kts | 206° |
| 2026-04-25 12:36 | 47.62499 | 15.82200 | 12013 ft | 226 kts | 206° |
| 2026-04-25 12:36 | 47.61026 | 15.81373 | 12009 ft | 226 kts | 205° |
| 2026-04-25 12:37 | 47.59693 | 15.80620 | 12008 ft | 227 kts | 205° |
| 2026-04-25 12:37 | 47.58218 | 15.79797 | 12001 ft | 226 kts | 205° |
| 2026-04-25 12:37 | 47.56751 | 15.78968 | 12016 ft | 226 kts | 205° |
| 2026-04-25 12:37 | 47.55276 | 15.78134 | 12016 ft | 228 kts | 205° |
| 2026-04-25 12:38 | 47.53797 | 15.77306 | 11988 ft | 226 kts | 205° |
| 2026-04-25 12:38 | 47.52328 | 15.76489 | 11997 ft | 224 kts | 205° |
| 2026-04-25 12:38 | 47.50866 | 15.75667 | 12015 ft | 225 kts | 205° |
| 2026-04-25 12:38 | 47.49394 | 15.74833 | 12017 ft | 227 kts | 205° |
| 2026-04-25 12:39 | 47.47918 | 15.74003 | 12010 ft | 228 kts | 205° |
| 2026-04-25 12:39 | 47.46475 | 15.73061 | 12014 ft | 226 kts | 213° |
| 2026-04-25 12:39 | 47.45185 | 15.71755 | 12005 ft | 224 kts | 221° |
| 2026-04-25 12:39 | 47.43961 | 15.70373 | 12004 ft | 224 kts | 221° |
| 2026-04-25 12:40 | 47.42714 | 15.68989 | 11999 ft | 224 kts | 221° |
| 2026-04-25 12:40 | 47.41472 | 15.67615 | 11988 ft | 223 kts | 220° |
| 2026-04-25 12:40 | 47.40227 | 15.66244 | 12015 ft | 224 kts | 221° |
| 2026-04-25 12:40 | 47.38977 | 15.64864 | 12010 ft | 225 kts | 221° |
| 2026-04-25 12:41 | 47.37721 | 15.63479 | 12008 ft | 225 kts | 221° |
| 2026-04-25 12:41 | 47.36467 | 15.62094 | 11995 ft | 224 kts | 221° |
| 2026-04-25 12:41 | 47.35223 | 15.60722 | 11990 ft | 223 kts | 221° |
| 2026-04-25 12:41 | 47.33979 | 15.59354 | 11998 ft | 223 kts | 221° |
| 2026-04-25 12:42 | 47.32738 | 15.57989 | 11997 ft | 222 kts | 221° |
| 2026-04-25 12:42 | 47.31912 | 15.57081 | 12006 ft | 223 kts | 220° |
| 2026-04-25 12:42 | 47.30265 | 15.55270 | 12000 ft | 223 kts | 221° |
| 2026-04-25 12:42 | 47.29016 | 15.53902 | 12000 ft | 223 kts | 220° |
| 2026-04-25 12:43 | 47.27765 | 15.52528 | 11998 ft | 223 kts | 221° |
| 2026-04-25 12:43 | 47.26519 | 15.51160 | 11993 ft | 223 kts | 220° |
| 2026-04-25 12:43 | 47.24038 | 15.48442 | 11999 ft | 222 kts | 221° |
| 2026-04-25 12:44 | 47.22793 | 15.47076 | 11996 ft | 223 kts | 221° |
| 2026-04-25 12:44 | 47.21563 | 15.45734 | 11990 ft | 223 kts | 220° |
| 2026-04-25 12:44 | 47.19070 | 15.43010 | 11997 ft | 223 kts | 220° |
| 2026-04-25 12:45 | 47.17821 | 15.41646 | 11993 ft | 224 kts | 220° |
| 2026-04-25 12:45 | 47.16573 | 15.40284 | 11986 ft | 223 kts | 220° |
| 2026-04-25 12:45 | 47.14085 | 15.37562 | 11994 ft | 223 kts | 220° |
| 2026-04-25 12:46 | 47.12842 | 15.36211 | 11992 ft | 222 kts | 220° |
| 2026-04-25 12:46 | 47.11595 | 15.34856 | 12001 ft | 223 kts | 220° |
| 2026-04-25 12:46 | 47.10346 | 15.33498 | 11994 ft | 224 kts | 220° |
| 2026-04-25 12:46 | 47.09111 | 15.32158 | 11988 ft | 223 kts | 221° |
| 2026-04-25 12:47 | 47.07865 | 15.30805 | 11992 ft | 223 kts | 220° |
| 2026-04-25 12:47 | 47.06619 | 15.29455 | 11987 ft | 222 kts | 220° |
| 2026-04-25 12:47 | 47.05376 | 15.28104 | 11984 ft | 222 kts | 220° |
| 2026-04-25 12:47 | 47.04139 | 15.26759 | 11989 ft | 221 kts | 220° |
| 2026-04-25 12:48 | 47.02900 | 15.25414 | 11986 ft | 221 kts | 220° |
| 2026-04-25 12:48 | 47.01657 | 15.24068 | 11993 ft | 222 kts | 220° |
| 2026-04-25 12:48 | 47.00416 | 15.22724 | 11991 ft | 221 kts | 220° |
| 2026-04-25 12:48 | 46.99179 | 15.21385 | 11997 ft | 221 kts | 220° |
| 2026-04-25 12:49 | 46.97951 | 15.20056 | 11998 ft | 222 kts | 220° |
| 2026-04-25 12:49 | 46.96706 | 15.18711 | 11980 ft | 222 kts | 220° |
| 2026-04-25 12:49 | 46.95458 | 15.17366 | 11900 ft | 225 kts | 220° |
| 2026-04-25 12:49 | 46.94179 | 15.15978 | 11677 ft | 232 kts | 220° |
| 2026-04-25 12:50 | 46.92872 | 15.14561 | 11457 ft | 235 kts | 220° |
| 2026-04-25 12:50 | 46.91551 | 15.13130 | 11233 ft | 237 kts | 220° |
| 2026-04-25 12:50 | 46.90219 | 15.11690 | 11045 ft | 238 kts | 219° |
| 2026-04-25 12:50 | 46.88876 | 15.10248 | 10839 ft | 239 kts | 219° |
| 2026-04-25 12:51 | 46.87539 | 15.08801 | 10691 ft | 239 kts | 220° |
| 2026-04-25 12:51 | 46.86202 | 15.07358 | 10502 ft | 239 kts | 219° |
| 2026-04-25 12:51 | 46.84861 | 15.05919 | 10312 ft | 238 kts | 219° |
| 2026-04-25 12:51 | 46.83526 | 15.04487 | 10157 ft | 238 kts | 219° |
| 2026-04-25 12:52 | 46.82190 | 15.03057 | 9995 ft | 238 kts | 219° |
| 2026-04-25 12:52 | 46.80872 | 15.01653 | 9774 ft | 237 kts | 219° |
| 2026-04-25 12:52 | 46.79538 | 15.00224 | 9627 ft | 237 kts | 219° |
| 2026-04-25 12:52 | 46.78211 | 14.98805 | 9410 ft | 236 kts | 219° |
| 2026-04-25 12:53 | 46.76889 | 14.97371 | 9272 ft | 235 kts | 222° |
| 2026-04-25 12:53 | 46.75801 | 14.95625 | 9116 ft | 232 kts | 240° |
| 2026-04-25 12:53 | 46.75006 | 14.93603 | 9022 ft | 226 kts | 242° |
| 2026-04-25 12:53 | 46.74218 | 14.91646 | 9023 ft | 222 kts | 242° |
| 2026-04-25 12:54 | 46.73431 | 14.89726 | 8999 ft | 219 kts | 242° |
| 2026-04-25 12:54 | 46.72666 | 14.87847 | 8998 ft | 217 kts | 242° |
| 2026-04-25 12:54 | 46.71899 | 14.85958 | 8999 ft | 216 kts | 242° |
| 2026-04-25 12:54 | 46.71135 | 14.84074 | 8987 ft | 215 kts | 242° |
| 2026-04-25 12:55 | 46.70374 | 14.82198 | 8986 ft | 214 kts | 242° |
| 2026-04-25 12:55 | 46.69873 | 14.80964 | 9004 ft | 214 kts | 242° |
| 2026-04-25 12:55 | 46.68855 | 14.78458 | 8996 ft | 215 kts | 242° |
| 2026-04-25 12:55 | 46.68090 | 14.76584 | 9002 ft | 216 kts | 242° |
| 2026-04-25 12:56 | 46.67324 | 14.74693 | 9010 ft | 217 kts | 242° |
| 2026-04-25 12:56 | 46.66569 | 14.72831 | 8996 ft | 216 kts | 242° |
| 2026-04-25 12:56 | 46.65799 | 14.70945 | 9010 ft | 217 kts | 242° |
| 2026-04-25 12:56 | 46.65028 | 14.69049 | 8999 ft | 218 kts | 242° |
| 2026-04-25 12:57 | 46.64253 | 14.67156 | 9007 ft | 218 kts | 242° |
| 2026-04-25 12:57 | 46.63469 | 14.65235 | 8772 ft | 224 kts | 242° |
| 2026-04-25 12:57 | 46.62661 | 14.63268 | 8332 ft | 229 kts | 241° |
| 2026-04-25 12:57 | 46.61848 | 14.61296 | 7910 ft | 217 kts | 241° |
| 2026-04-25 12:58 | 46.61107 | 14.59513 | 7291 ft | 196 kts | 241° |
| 2026-04-25 12:58 | 46.60418 | 14.57853 | 6627 ft | 188 kts | 240° |
| 2026-04-25 12:58 | 46.59757 | 14.56244 | 5887 ft | 183 kts | 240° |
| 2026-04-25 12:58 | 46.59233 | 14.54590 | 5188 ft | 179 kts | 262° |
| 2026-04-25 12:59 | 46.59500 | 14.52880 | 4470 ft | 178 kts | 304° |
| 2026-04-25 12:59 | 46.60280 | 14.51523 | 3877 ft | 175 kts | 303° |
| 2026-04-25 12:59 | 46.60814 | 14.50001 | 3423 ft | 163 kts | 290° |
| 2026-04-25 12:59 | 46.61123 | 14.48463 | 3204 ft | 160 kts | 285° |
| 2026-04-25 13:00 | 46.61386 | 14.46833 | 3154 ft | 169 kts | 284° |
| 2026-04-25 13:00 | 46.61934 | 14.43439 | 3074 ft | 174 kts | 285° |
| 2026-04-25 13:00 | 46.62352 | 14.41777 | 2878 ft | 177 kts | 296° |
| 2026-04-25 13:01 | 46.62857 | 14.40171 | 2461 ft | 171 kts | 294° |
| 2026-04-25 13:01 | 46.63270 | 14.38620 | 2098 ft | 159 kts | 287° |
| 2026-04-25 13:01 | 46.63563 | 14.37220 | 1788 ft | 125 kts | 286° |
| 2026-04-25 13:01 | 46.63776 | 14.36138 | 1606 ft | 96 kts | 287° |
| 2026-04-25 13:02 | 46.63949 | 14.35275 | 1465 ft | 88 kts | 287° |
| 2026-04-25 13:02 | 46.64099 | 14.34557 | 1456 ft | 60 kts | 287° |
| 2026-04-25 13:02 | 46.64200 | 14.34060 | 1460 ft | 48 kts | 287° |
| 2026-04-25 13:02 | 46.64295 | 14.33627 | 1462 ft | 41 kts | 289° |
| 2026-04-25 13:03 | 46.64364 | 14.33265 | 1462 ft | 34 kts | 284° |
| 2026-04-25 13:03 | 46.64427 | 14.32953 | 1467 ft | 29 kts | 295° |
| 2026-04-25 13:03 | 46.64561 | 14.32811 | 1468 ft | 23 kts | 334° |
| 2026-04-25 13:03 | 46.64666 | 14.32648 | 1467 ft | 22 kts | 288° |
| 2026-04-25 13:04 | 46.64711 | 14.32486 | 1474 ft | 15 kts | 340° |
| 2026-04-25 13:04 | 46.64779 | 14.32390 | 1474 ft | 15 kts | 339° |
| 2026-04-25 13:04 | 46.64843 | 14.32391 | 1475 ft | 7 kts | 77° |
| 2026-04-25 13:04 | 46.64846 | 14.32408 | 1474 ft | 0 kts | 71° |